createdAt,value
2018-02-22T00:01:22.336Z,19.98
2018-02-22T00:03:48.581Z,18.98
2018-02-22T00:06:14.893Z,18.45
2018-02-22T00:08:41.077Z,17.75
2018-02-22T00:11:08.072Z,17.65
2018-02-22T00:13:34.651Z,16.25
2018-02-22T00:16:01.223Z,17.23
2018-02-22T00:18:28.357Z,16.87
2018-02-22T00:20:54.588Z,18.75
2018-02-22T00:23:20.798Z,16.77
2018-02-22T00:25:47.741Z,16.77
2018-02-22T00:28:13.928Z,17.20
2018-02-22T00:30:40.169Z,15.95
2018-02-22T00:33:06.359Z,17.55
2018-02-22T00:35:32.574Z,16.35
2018-02-22T00:37:59.107Z,15.02
2018-02-22T00:40:26.847Z,15.23
2018-02-22T00:42:53.025Z,14.45
2018-02-22T00:45:19.243Z,15.52
2018-02-22T00:47:45.451Z,14.15
2018-02-22T00:50:12.382Z,14.68
2018-02-22T00:52:38.606Z,12.32
2018-02-22T00:55:04.806Z,15.32
2018-02-22T00:57:30.989Z,14.55
2018-02-22T00:59:57.941Z,13.93
2018-02-22T01:02:24.149Z,12.93
2018-02-22T01:04:51.130Z,14.55
2018-02-22T01:07:17.324Z,12.68
2018-02-22T01:09:44.294Z,13.10
2018-02-22T01:12:10.457Z,13.85
2018-02-22T01:14:37.694Z,12.75
2018-02-22T01:17:03.855Z,13.80
2018-02-22T01:19:30.428Z,13.80
2018-02-22T01:21:56.966Z,12.80
2018-02-22T01:24:24.877Z,11.93
2018-02-22T01:26:51.095Z,13.65
2018-02-22T01:29:17.295Z,14.02
2018-02-22T01:31:43.474Z,12.80
2018-02-22T01:34:10.098Z,12.65
2018-02-22T01:36:36.328Z,12.43
2018-02-22T01:39:02.920Z,12.23
2018-02-22T01:41:30.343Z,12.60
2018-02-22T01:43:56.504Z,12.20
2018-02-22T01:46:23.071Z,12.07
2018-02-22T01:48:49.605Z,13.73
2018-02-22T01:51:16.162Z,11.95
2018-02-22T01:53:43.108Z,12.75
2018-02-22T01:56:09.295Z,12.70
2018-02-22T01:58:36.236Z,11.05
2018-02-22T02:01:03.164Z,13.05
2018-02-22T02:03:30.494Z,11.88
2018-02-22T02:05:57.442Z,12.15
2018-02-22T02:08:23.616Z,11.40
2018-02-22T02:10:49.802Z,11.50
2018-02-22T02:13:16.000Z,11.60
2018-02-22T02:15:42.150Z,11.35
2018-02-22T02:18:08.413Z,12.70
2018-02-22T02:20:38.463Z,11.32
2018-02-22T02:23:05.176Z,11.30
2018-02-22T02:25:32.101Z,13.82
2018-02-22T02:28:04.370Z,12.18
2018-02-22T02:30:30.912Z,12.93
2018-02-22T02:32:57.107Z,11.95
2018-02-22T02:35:23.282Z,11.70
2018-02-22T02:37:50.278Z,12.57
2018-02-22T02:40:16.506Z,11.20
2018-02-22T02:42:42.724Z,10.57
2018-02-22T02:45:08.902Z,11.38
2018-02-22T02:47:35.142Z,10.77
2018-02-22T02:50:02.064Z,12.93
2018-02-22T02:52:28.218Z,10.77
2018-02-22T02:54:55.190Z,12.07
2018-02-22T02:57:21.736Z,12.13
2018-02-22T02:59:48.673Z,11.35
2018-02-22T03:02:15.385Z,11.20
2018-02-22T03:04:42.301Z,11.55
2018-02-22T03:07:08.478Z,10.82
2018-02-22T03:09:34.633Z,10.40
2018-02-22T03:12:00.846Z,11.77
2018-02-22T03:14:27.038Z,11.57
2018-02-22T03:16:54.031Z,11.57
2018-02-22T03:19:20.960Z,11.70
2018-02-22T03:21:47.155Z,11.20
2018-02-22T03:24:13.338Z,11.68
2018-02-22T03:26:39.526Z,10.68
2018-02-22T03:29:06.441Z,10.95
2018-02-22T03:31:32.590Z,10.77
2018-02-22T03:33:59.520Z,10.30
2018-02-22T03:36:25.670Z,11.70
2018-02-22T03:38:52.571Z,11.90
2018-02-22T03:41:18.767Z,12.23
2018-02-22T03:43:44.893Z,11.60
2018-02-22T03:46:11.078Z,11.10
2018-02-22T03:48:37.630Z,11.45
2018-02-22T03:51:04.527Z,11.50
2018-02-22T03:53:30.737Z,10.73
2018-02-22T03:55:56.900Z,11.15
2018-02-22T03:58:23.080Z,11.57
2018-02-22T04:00:49.293Z,11.82
2018-02-22T04:03:16.241Z,12.52
2018-02-22T04:05:43.210Z,11.02
2018-02-22T04:08:10.174Z,10.50
2018-02-22T04:10:36.353Z,10.27
2018-02-22T04:13:02.918Z,11.50
2018-02-22T04:15:29.470Z,13.80
2018-02-22T04:17:55.690Z,11.00
2018-02-22T04:20:21.922Z,11.25
2018-02-22T04:22:49.235Z,10.90
2018-02-22T04:25:16.161Z,12.43
2018-02-22T04:27:42.722Z,12.55
2018-02-22T04:30:09.647Z,11.48
2018-02-22T04:32:36.189Z,10.00
2018-02-22T04:35:02.877Z,11.85
2018-02-22T04:37:29.814Z,12.23
2018-02-22T04:39:55.939Z,11.10
2018-02-22T04:42:22.516Z,9.93
2018-02-22T04:44:48.670Z,11.25
2018-02-22T04:47:15.673Z,11.02
2018-02-22T04:49:42.203Z,9.50
2018-02-22T04:52:08.751Z,10.15
2018-02-22T04:54:35.367Z,11.40
2018-02-22T04:57:01.910Z,11.20
2018-02-22T04:59:28.477Z,11.10
2018-02-22T05:01:55.030Z,10.65
2018-02-22T05:04:21.194Z,8.95
2018-02-22T05:06:47.378Z,10.85
2018-02-22T05:09:14.080Z,9.73
2018-02-22T05:11:40.316Z,8.73
2018-02-22T05:14:07.287Z,10.65
2018-02-22T05:16:33.608Z,11.80
2018-02-22T05:19:00.228Z,9.50
2018-02-22T05:21:27.334Z,8.35
2018-02-22T05:23:53.519Z,8.98
2018-02-22T05:26:19.751Z,8.32
2018-02-22T05:28:46.682Z,8.07
2018-02-22T05:31:12.838Z,8.70
2018-02-22T05:33:39.032Z,8.18
2018-02-22T05:36:05.194Z,9.52
2018-02-22T05:38:31.406Z,7.72
2018-02-22T05:40:57.659Z,7.62
2018-02-22T05:43:23.834Z,9.20
2018-02-22T05:45:50.097Z,7.65
2018-02-22T05:48:16.279Z,7.85
2018-02-22T05:50:42.884Z,7.87
2018-02-22T05:53:09.031Z,7.97
2018-02-22T05:55:35.927Z,7.68
2018-02-22T05:58:02.093Z,8.35
2018-02-22T06:00:29.026Z,7.18
2018-02-22T06:02:55.198Z,7.68
2018-02-22T06:05:21.755Z,6.90
2018-02-22T06:07:47.926Z,7.22
2018-02-22T06:10:14.087Z,6.78
2018-02-22T06:12:40.755Z,6.70
2018-02-22T06:15:06.978Z,7.03
2018-02-22T06:17:33.284Z,5.80
2018-02-22T06:20:00.191Z,6.30
2018-02-22T06:22:26.781Z,7.00
2018-02-22T06:24:53.308Z,6.60
2018-02-22T06:27:20.243Z,6.82
2018-02-22T06:29:47.214Z,7.28
2018-02-22T06:32:13.681Z,5.85
2018-02-22T06:34:47.120Z,6.07
2018-02-22T06:37:14.059Z,7.93
2018-02-22T06:39:41.052Z,5.82
2018-02-22T06:42:07.637Z,5.55
2018-02-22T06:44:33.807Z,5.68
2018-02-22T06:47:00.793Z,7.10
2018-02-22T06:49:27.351Z,6.62
2018-02-22T06:51:54.261Z,6.07
2018-02-22T06:54:20.794Z,7.12
2018-02-22T06:56:47.033Z,6.47
2018-02-22T06:59:13.694Z,6.68
2018-02-22T07:01:40.042Z,6.32
2018-02-22T07:04:06.714Z,6.10
2018-02-22T07:06:33.771Z,6.03
2018-02-22T07:09:01.319Z,6.47
2018-02-22T07:11:27.901Z,7.10
2018-02-22T07:13:54.100Z,6.72
2018-02-22T07:16:20.326Z,6.22
2018-02-22T07:18:46.585Z,6.32
2018-02-22T07:21:12.811Z,6.97
2018-02-22T07:23:39.213Z,6.40
2018-02-22T07:26:05.424Z,6.00
2018-02-22T07:28:31.696Z,6.10
2018-02-22T07:30:57.938Z,5.75
2018-02-22T07:33:24.155Z,5.05
2018-02-22T07:35:51.094Z,5.53
2018-02-22T07:38:17.711Z,4.60
2018-02-22T07:40:44.242Z,5.22
2018-02-22T07:43:10.502Z,5.68
2018-02-22T07:45:37.043Z,5.30
2018-02-22T07:48:04.067Z,5.00
2018-02-22T07:50:30.246Z,4.53
2018-02-22T07:52:57.213Z,4.97
2018-02-22T07:55:23.455Z,5.62
2018-02-22T07:57:49.700Z,5.23
2018-02-22T08:00:16.659Z,4.93
2018-02-22T08:02:43.231Z,5.30
2018-02-22T08:05:11.150Z,5.23
2018-02-22T08:07:37.732Z,5.53
2018-02-22T08:10:03.890Z,5.50
2018-02-22T08:12:30.499Z,5.77
2018-02-22T08:14:56.651Z,5.83
2018-02-22T08:17:23.602Z,6.60
2018-02-22T08:19:50.604Z,5.60
2018-02-22T08:22:16.803Z,5.30
2018-02-22T08:24:42.970Z,5.50
2018-02-22T08:27:09.542Z,6.20
2018-02-22T08:29:35.764Z,5.53
2018-02-22T08:32:02.718Z,6.77
2018-02-22T08:34:28.911Z,6.50
2018-02-22T08:36:55.942Z,6.07
2018-02-22T08:39:22.134Z,5.60
2018-02-22T08:41:48.310Z,6.17
2018-02-22T08:44:14.568Z,6.33
2018-02-22T08:46:41.491Z,6.00
2018-02-22T08:49:07.736Z,6.17
2018-02-22T08:51:34.679Z,6.40
2018-02-22T08:54:01.603Z,7.47
2018-02-22T08:56:29.349Z,6.83
2018-02-22T08:58:56.259Z,6.77
2018-02-22T09:01:22.461Z,7.10
2018-02-22T09:03:48.623Z,6.63
2018-02-22T09:06:14.755Z,6.83
2018-02-22T09:08:40.961Z,6.33
2018-02-22T09:11:07.879Z,6.43
2018-02-22T09:13:34.093Z,6.57
2018-02-22T09:16:00.310Z,7.37
2018-02-22T09:18:26.492Z,6.60
2018-02-22T09:20:53.459Z,7.37
2018-02-22T09:23:19.679Z,7.40
2018-02-22T09:25:45.833Z,6.40
2018-02-22T09:28:12.231Z,6.80
2018-02-22T09:30:38.762Z,6.53
2018-02-22T09:33:04.912Z,6.67
2018-02-22T09:35:31.706Z,7.87
2018-02-22T09:37:58.000Z,7.03
2018-02-22T09:40:24.208Z,7.00
2018-02-22T09:42:50.433Z,7.97
2018-02-22T09:45:16.613Z,8.77
2018-02-22T09:47:43.556Z,7.33
2018-02-22T09:50:09.841Z,7.70
2018-02-22T09:52:36.096Z,8.17
2018-02-22T09:55:02.307Z,7.00
2018-02-22T09:57:29.401Z,7.43
2018-02-22T09:59:55.678Z,7.70
2018-02-22T10:02:22.623Z,7.90
2018-02-22T10:04:48.830Z,7.90
2018-02-22T10:07:15.733Z,9.20
2018-02-22T10:09:41.966Z,8.90
2018-02-22T10:12:08.148Z,8.67
2018-02-22T10:14:34.330Z,8.93
2018-02-22T10:17:00.942Z,8.50
2018-02-22T10:19:27.131Z,8.37
2018-02-22T10:21:54.109Z,9.10
2018-02-22T10:24:20.295Z,8.70
2018-02-22T10:26:47.235Z,8.60
2018-02-22T10:29:13.836Z,6.97
2018-02-22T10:31:40.022Z,7.97
2018-02-22T10:34:06.925Z,8.23
2018-02-22T10:36:33.132Z,8.07
2018-02-22T10:38:59.335Z,8.23
2018-02-22T10:41:25.542Z,8.00
2018-02-22T10:43:52.560Z,7.53
2018-02-22T10:46:19.512Z,8.90
2018-02-22T10:48:46.432Z,7.97
2018-02-22T10:51:12.633Z,7.97
2018-02-22T10:53:38.794Z,8.13
2018-02-22T10:56:05.319Z,8.00
2018-02-22T10:58:31.518Z,8.80
2018-02-22T11:01:03.807Z,8.30
2018-02-22T11:03:30.036Z,10.70
2018-02-22T11:05:56.954Z,9.10
2018-02-22T11:08:23.845Z,8.20
2018-02-22T11:10:50.264Z,8.10
2018-02-22T11:13:16.418Z,8.03
2018-02-22T11:15:42.665Z,8.47
2018-02-22T11:18:09.250Z,7.97
2018-02-22T11:20:35.946Z,9.17
2018-02-22T11:23:02.893Z,8.27
2018-02-22T11:25:30.054Z,7.77
2018-02-22T11:27:56.668Z,8.00
2018-02-22T11:30:23.809Z,8.10
2018-02-22T11:32:49.978Z,8.07
2018-02-22T11:35:16.974Z,7.63
2018-02-22T11:37:43.176Z,8.50
2018-02-22T11:40:09.741Z,8.40
2018-02-22T11:42:35.923Z,8.70
2018-02-22T11:45:02.509Z,8.20
2018-02-22T11:47:29.064Z,9.33
2018-02-22T11:49:56.018Z,9.00
2018-02-22T11:52:22.417Z,8.83
2018-02-22T11:54:48.566Z,9.60
2018-02-22T11:57:15.507Z,8.30
2018-02-22T11:59:42.472Z,7.73
2018-02-22T12:02:09.441Z,8.17
2018-02-22T12:04:36.507Z,8.90
2018-02-22T12:07:02.718Z,8.47
2018-02-22T12:09:29.767Z,7.83
2018-02-22T12:11:56.712Z,7.30
2018-02-22T12:14:23.290Z,8.10
2018-02-22T12:16:50.681Z,7.13
2018-02-22T12:19:16.989Z,8.33
2018-02-22T12:21:43.201Z,8.53
2018-02-22T12:24:09.764Z,7.00
2018-02-22T12:26:35.989Z,7.53
2018-02-22T12:29:02.294Z,7.60
2018-02-22T12:31:28.453Z,7.10
2018-02-22T12:33:56.781Z,7.40
2018-02-22T12:36:22.953Z,6.97
2018-02-22T12:38:49.178Z,7.93
2018-02-22T12:41:15.330Z,7.53
2018-02-22T12:43:41.538Z,7.80
2018-02-22T12:46:07.721Z,7.80
2018-02-22T12:48:33.973Z,8.57
2018-02-22T12:51:00.139Z,7.50
2018-02-22T12:53:26.342Z,8.10
2018-02-22T12:55:52.546Z,8.10
2018-02-22T12:58:18.834Z,6.23
2018-02-22T13:00:45.781Z,6.97
2018-02-22T13:03:12.741Z,7.37
2018-02-22T13:05:39.805Z,6.73
2018-02-22T13:08:06.035Z,6.63
2018-02-22T13:10:32.228Z,7.50
2018-02-22T13:12:58.454Z,7.37
2018-02-22T13:15:24.745Z,6.97
2018-02-22T13:17:51.173Z,7.13
2018-02-22T13:20:17.405Z,7.57
2018-02-22T13:22:43.600Z,7.50
2018-02-22T13:25:11.000Z,6.17
2018-02-22T13:27:37.232Z,7.80
2018-02-22T13:30:03.429Z,7.40
2018-02-22T13:32:41.995Z,7.30
2018-02-22T13:35:08.258Z,6.80
2018-02-22T13:51:15.701Z,6.90
2018-02-22T13:53:41.963Z,6.33
2018-02-22T13:56:21.294Z,6.13
2018-02-22T13:58:47.928Z,7.43
2018-02-22T14:01:28.068Z,6.23
2018-02-22T14:03:54.280Z,6.80
2018-02-22T14:06:20.567Z,5.40
2018-02-22T14:08:47.538Z,5.70
2018-02-22T14:11:13.742Z,6.27
2018-02-22T14:13:40.779Z,5.90
2018-02-22T14:16:07.801Z,6.23
2018-02-22T14:18:34.041Z,6.10
2018-02-22T14:21:01.031Z,5.10
2018-02-22T14:23:27.305Z,6.07
2018-02-22T14:25:53.521Z,6.07
2018-02-22T14:28:19.833Z,5.00
2018-02-22T14:30:45.955Z,5.73
2018-02-22T14:33:12.233Z,5.10
2018-02-22T14:35:38.438Z,6.00
2018-02-22T14:38:04.641Z,5.80
2018-02-22T14:40:30.900Z,4.80
2018-02-22T14:42:57.162Z,5.63
2018-02-22T14:45:24.223Z,6.10
2018-02-22T14:47:51.202Z,6.00
2018-02-22T14:50:17.441Z,6.03
2018-02-22T14:52:43.685Z,5.80
2018-02-22T14:55:09.894Z,5.60
2018-02-22T14:57:36.155Z,5.00
2018-02-22T15:00:02.476Z,6.50
2018-02-22T15:02:28.785Z,5.80
2018-02-22T15:04:55.030Z,7.27
2018-02-22T15:07:21.281Z,5.67
2018-02-22T15:09:47.504Z,6.47
2018-02-22T15:12:14.204Z,5.40
2018-02-22T15:14:40.397Z,5.50
2018-02-22T15:17:07.376Z,4.87
2018-02-22T15:19:33.576Z,5.37
2018-02-22T15:22:00.591Z,5.67
2018-02-22T15:24:26.913Z,6.07
2018-02-22T15:26:53.210Z,6.13
2018-02-22T15:29:19.430Z,5.67
2018-02-22T15:31:45.680Z,6.20
2018-02-22T15:34:11.892Z,5.43
2018-02-22T15:36:38.212Z,6.77
2018-02-22T15:39:05.138Z,5.67
2018-02-22T15:41:31.344Z,5.80
2018-02-22T15:43:57.512Z,5.60
2018-02-22T15:46:25.891Z,6.50
2018-02-22T15:48:52.887Z,5.57
2018-02-22T15:51:19.139Z,6.63
2018-02-22T15:53:45.292Z,6.60
2018-02-22T15:56:12.273Z,5.97
2018-02-22T15:58:38.470Z,6.10
2018-02-22T16:01:05.440Z,7.00
2018-02-22T16:03:31.693Z,6.03
2018-02-22T16:05:57.880Z,7.20
2018-02-22T16:08:24.146Z,6.80
2018-02-22T16:10:51.202Z,7.07
2018-02-22T16:13:17.398Z,6.03
2018-02-22T16:15:43.628Z,6.50
2018-02-22T16:18:10.329Z,7.00
2018-02-22T16:20:36.574Z,7.10
2018-02-22T16:23:03.544Z,8.00
2018-02-22T16:25:29.846Z,6.40
2018-02-22T16:27:56.810Z,7.50
2018-02-22T16:30:22.959Z,7.03
2018-02-22T16:32:49.965Z,6.85
2018-02-22T16:35:17.225Z,6.50
2018-02-22T16:37:43.462Z,6.37
2018-02-22T16:40:09.670Z,6.50
2018-02-22T16:42:36.624Z,6.70
2018-02-22T16:45:04.462Z,7.30
2018-02-22T16:47:32.132Z,8.30
2018-02-22T16:49:58.422Z,7.10
2018-02-22T16:52:24.934Z,6.55
2018-02-22T16:54:51.178Z,6.82
2018-02-22T16:57:17.381Z,6.78
2018-02-22T16:59:44.363Z,6.15
2018-02-22T17:02:10.648Z,5.65
2018-02-22T17:04:37.570Z,6.40
2018-02-22T17:07:03.809Z,6.57
2018-02-22T17:09:30.058Z,6.40
2018-02-22T17:11:57.355Z,6.37
2018-02-22T17:14:23.609Z,6.62
2018-02-22T17:16:49.901Z,6.80
2018-02-22T17:19:16.051Z,7.18
2018-02-22T17:21:42.302Z,6.80
2018-02-22T17:24:09.263Z,7.25
2018-02-22T17:26:42.327Z,4.28
2018-02-22T17:29:14.622Z,6.50
2018-02-22T17:31:46.903Z,7.27
2018-02-22T17:34:13.855Z,7.07
2018-02-22T17:36:50.803Z,5.60
2018-02-22T17:39:35.148Z,6.90
2018-02-22T17:42:01.430Z,7.68
2018-02-22T17:44:27.703Z,6.10
2018-02-22T17:46:53.974Z,5.70
2018-02-22T17:49:21.049Z,6.95
2018-02-22T17:51:47.664Z,7.10
2018-02-22T17:54:14.634Z,6.18
2018-02-22T17:56:40.891Z,6.82
2018-02-22T17:59:07.100Z,6.10
2018-02-22T18:01:34.335Z,6.55
2018-02-22T18:04:00.662Z,7.00
2018-02-22T18:06:27.693Z,7.15
2018-02-22T18:08:55.727Z,6.70
2018-02-22T18:11:22.901Z,6.43
2018-02-22T18:13:50.017Z,6.50
2018-02-22T18:16:16.236Z,6.22
2018-02-22T18:18:42.553Z,6.75
2018-02-22T18:21:10.542Z,6.75
2018-02-22T18:23:36.878Z,5.75
2018-02-22T18:26:03.229Z,6.20
2018-02-22T18:28:30.473Z,6.65
2018-02-22T18:30:56.867Z,6.10
2018-02-22T18:33:24.713Z,5.85
2018-02-22T18:35:51.222Z,5.65
2018-02-22T18:38:17.802Z,6.75
2018-02-22T18:40:50.484Z,6.65
2018-02-22T18:43:24.805Z,6.28
2018-02-22T18:45:51.014Z,6.60
2018-02-22T18:48:18.117Z,6.03
2018-02-22T18:50:44.426Z,6.15
2018-02-22T18:53:10.736Z,5.82
2018-02-22T18:55:37.732Z,6.97
2018-02-22T18:58:04.043Z,6.25
2018-02-22T19:00:31.146Z,6.28
2018-02-22T19:02:58.153Z,6.20
2018-02-22T19:05:25.139Z,5.22
2018-02-22T19:07:51.443Z,5.78
2018-02-22T19:10:19.168Z,5.60
2018-02-22T19:12:45.439Z,6.12
2018-02-22T19:15:11.746Z,5.20
2018-02-22T19:17:38.029Z,6.53
2018-02-22T19:20:05.785Z,6.20
2018-02-22T19:22:32.678Z,5.80
2018-02-22T19:24:59.001Z,6.95
2018-02-22T19:27:25.376Z,6.00
2018-02-22T19:29:51.610Z,5.75
2018-02-22T19:32:17.831Z,5.95
2018-02-22T19:34:44.059Z,5.70
2018-02-22T19:37:10.294Z,5.68
2018-02-22T19:39:36.531Z,6.15
2018-02-22T19:42:02.744Z,6.45
2018-02-22T19:44:28.946Z,6.03
2018-02-22T19:46:55.227Z,5.97
2018-02-22T19:49:22.160Z,7.10
2018-02-22T19:51:48.367Z,5.85
2018-02-22T19:54:14.561Z,6.28
2018-02-22T19:56:40.786Z,5.72
2018-02-22T19:59:07.062Z,6.80
2018-02-22T20:01:33.343Z,6.93
2018-02-22T20:04:00.341Z,5.80
2018-02-22T20:06:26.611Z,6.93
2018-02-22T20:08:52.844Z,6.65
2018-02-22T20:11:19.381Z,7.05
2018-02-22T20:13:47.194Z,6.30
2018-02-22T20:16:13.441Z,6.20
2018-02-22T20:18:39.689Z,6.45
2018-02-22T20:21:05.970Z,6.62
2018-02-22T20:23:32.274Z,6.00
2018-02-22T20:25:59.352Z,6.25
2018-02-22T20:28:25.592Z,6.40
2018-02-22T20:30:53.373Z,6.90
2018-02-22T20:33:19.650Z,8.73
2018-02-22T20:35:46.699Z,5.82
2018-02-22T20:38:13.848Z,7.00
2018-02-22T20:40:40.816Z,7.30
2018-02-22T20:43:08.144Z,6.40
2018-02-22T20:45:35.178Z,7.15
2018-02-22T20:48:01.487Z,6.95
2018-02-22T20:50:27.755Z,6.43
2018-02-22T20:53:01.183Z,7.00
2018-02-22T20:55:31.076Z,7.12
2018-02-22T20:58:01.765Z,7.62
2018-02-22T21:00:30.723Z,7.55
2018-02-22T21:02:58.260Z,7.78
2018-02-22T21:05:24.639Z,7.10
2018-02-22T21:07:50.901Z,7.80
2018-02-22T21:10:17.135Z,8.13
2018-02-22T21:12:43.466Z,7.97
2018-02-22T21:15:10.067Z,6.18
2018-02-22T21:17:36.287Z,7.30
2018-02-22T21:20:02.591Z,7.37
2018-02-22T21:22:28.835Z,6.93
2018-02-22T21:24:55.050Z,7.12
2018-02-22T21:27:21.274Z,7.78
2018-02-22T21:29:47.468Z,7.40
2018-02-22T21:32:13.719Z,7.60
2018-02-22T21:34:40.692Z,7.82
2018-02-22T21:37:06.964Z,6.35
2018-02-22T21:39:33.162Z,8.38
2018-02-22T21:41:59.440Z,8.23
2018-02-22T21:44:26.408Z,7.87
2018-02-22T21:46:54.272Z,8.18
2018-02-22T21:49:21.255Z,7.53
2018-02-22T21:51:47.444Z,7.25
2018-02-22T21:54:14.410Z,7.95
2018-02-22T21:56:40.574Z,8.77
2018-02-22T21:59:06.802Z,8.50
2018-02-22T22:01:33.003Z,8.00
2018-02-22T22:03:59.212Z,7.53
2018-02-22T22:06:26.107Z,8.10
2018-02-22T22:08:52.338Z,8.93
2018-02-22T22:11:18.527Z,7.65
2018-02-22T22:13:44.756Z,9.82
2018-02-22T22:16:11.027Z,7.60
2018-02-22T22:18:37.241Z,7.78
2018-02-22T22:21:03.514Z,8.85
2018-02-22T22:23:30.514Z,8.00
2018-02-22T22:25:56.820Z,8.38
2018-02-22T22:28:23.230Z,7.25
2018-02-22T22:30:50.258Z,8.13
2018-02-22T22:33:16.457Z,8.07
2018-02-22T22:35:42.730Z,8.00
2018-02-22T22:38:09.676Z,8.27
2018-02-22T22:40:35.982Z,8.27
2018-02-22T22:43:02.204Z,8.50
2018-02-22T22:45:28.461Z,8.77
2018-02-22T22:47:54.642Z,6.97
2018-02-22T22:50:20.854Z,8.35
2018-02-22T22:52:47.083Z,8.10
2018-02-22T22:55:13.252Z,8.32
2018-02-22T22:57:39.438Z,7.62
2018-02-22T23:00:05.671Z,8.25
2018-02-22T23:02:31.856Z,9.15
2018-02-22T23:04:58.030Z,8.10
2018-02-22T23:07:24.265Z,8.43
2018-02-22T23:09:50.561Z,7.70
2018-02-22T23:12:17.535Z,7.43
2018-02-22T23:14:43.769Z,7.53
2018-02-22T23:17:09.974Z,7.65
2018-02-22T23:19:36.914Z,7.80
2018-02-22T23:22:03.839Z,7.70
2018-02-22T23:24:30.138Z,7.22
2018-02-22T23:26:56.341Z,7.55
2018-02-22T23:29:22.504Z,8.48
2018-02-22T23:31:48.693Z,9.25
2018-02-22T23:34:14.863Z,7.20
2018-02-22T23:36:41.046Z,7.95
2018-02-22T23:39:07.285Z,7.25
2018-02-22T23:41:39.506Z,9.30
2018-02-22T23:44:05.708Z,7.20
2018-02-22T23:46:31.930Z,7.55
2018-02-22T23:48:58.129Z,8.15
2018-02-22T23:51:24.380Z,8.68
2018-02-22T23:53:50.571Z,7.40
2018-02-22T23:56:17.492Z,7.32
2018-02-22T23:58:44.262Z,7.50
